sensor_id;sensor_type;location;lat;lon;timestamp;temperature;humidity
48994;DHT22;34804;49.214;12.276;2022-12-17T00:00:46;-3273.90;87.20
48994;DHT22;34804;49.214;12.276;2022-12-17T00:03:32;-3273.80;87.10
48994;DHT22;34804;49.214;12.276;2022-12-17T00:06:22;-3273.80;87.10
48994;DHT22;34804;49.214;12.276;2022-12-17T00:09:08;-3273.80;87.20
48994;DHT22;34804;49.214;12.276;2022-12-17T00:11:53;-3273.70;87.20
48994;DHT22;34804;49.214;12.276;2022-12-17T00:14:38;-3273.70;87.30
48994;DHT22;34804;49.214;12.276;2022-12-17T00:17:24;-3273.80;87.40
48994;DHT22;34804;49.214;12.276;2022-12-17T00:20:10;-3273.70;87.50
48994;DHT22;34804;49.214;12.276;2022-12-17T00:22:59;-3273.70;87.40
48994;DHT22;34804;49.214;12.276;2022-12-17T00:25:52;-3273.70;87.60
48994;DHT22;34804;49.214;12.276;2022-12-17T00:28:38;-3273.70;87.60
48994;DHT22;34804;49.214;12.276;2022-12-17T00:31:27;-3273.70;87.30
48994;DHT22;34804;49.214;12.276;2022-12-17T00:34:13;-3273.70;87.10
48994;DHT22;34804;49.214;12.276;2022-12-17T00:36:59;-3273.70;87.30
48994;DHT22;34804;49.214;12.276;2022-12-17T00:39:44;-3273.70;87.50
48994;DHT22;34804;49.214;12.276;2022-12-17T00:42:29;-3273.70;87.60
48994;DHT22;34804;49.214;12.276;2022-12-17T00:45:15;-3273.70;87.20
48994;DHT22;34804;49.214;12.276;2022-12-17T00:48:00;-3273.70;87.30
48994;DHT22;34804;49.214;12.276;2022-12-17T00:50:45;-3273.70;87.30
48994;DHT22;34804;49.214;12.276;2022-12-17T00:53:31;-3273.70;87.00
48994;DHT22;34804;49.214;12.276;2022-12-17T00:56:16;-3273.70;87.00
48994;DHT22;34804;49.214;12.276;2022-12-17T00:59:02;-3273.70;86.90
48994;DHT22;34804;49.214;12.276;2022-12-17T01:01:47;-3273.70;87.10
48994;DHT22;34804;49.214;12.276;2022-12-17T01:04:32;-3273.70;87.20
48994;DHT22;34804;49.214;12.276;2022-12-17T01:07:18;-3273.70;87.20
48994;DHT22;34804;49.214;12.276;2022-12-17T01:10:04;-3273.70;87.70
48994;DHT22;34804;49.214;12.276;2022-12-17T01:12:49;-3273.60;87.70
48994;DHT22;34804;49.214;12.276;2022-12-17T01:15:35;-3273.70;87.70
48994;DHT22;34804;49.214;12.276;2022-12-17T01:18:22;-3273.70;87.80
48994;DHT22;34804;49.214;12.276;2022-12-17T01:21:07;-3273.70;87.40
48994;DHT22;34804;49.214;12.276;2022-12-17T01:23:53;-3273.70;87.30
48994;DHT22;34804;49.214;12.276;2022-12-17T01:26:38;-3273.70;87.30
48994;DHT22;34804;49.214;12.276;2022-12-17T01:29:23;-3273.70;87.50
48994;DHT22;34804;49.214;12.276;2022-12-17T01:32:09;-3273.70;87.60
48994;DHT22;34804;49.214;12.276;2022-12-17T01:34:59;-3273.60;87.70
48994;DHT22;34804;49.214;12.276;2022-12-17T01:37:44;-3273.60;87.90
48994;DHT22;34804;49.214;12.276;2022-12-17T01:40:30;-3273.60;87.80
48994;DHT22;34804;49.214;12.276;2022-12-17T01:43:31;-3273.60;88.00
48994;DHT22;34804;49.214;12.276;2022-12-17T01:46:16;-3273.60;87.90
48994;DHT22;34804;49.214;12.276;2022-12-17T01:49:02;-3273.60;87.30
48994;DHT22;34804;49.214;12.276;2022-12-17T01:51:49;-3273.60;86.90
48994;DHT22;34804;49.214;12.276;2022-12-17T01:54:37;-3273.60;86.60
48994;DHT22;34804;49.214;12.276;2022-12-17T01:57:24;-3273.60;86.50
48994;DHT22;34804;49.214;12.276;2022-12-17T02:00:12;-3273.50;86.60
48994;DHT22;34804;49.214;12.276;2022-12-17T02:02:58;-3273.40;86.80
48994;DHT22;34804;49.214;12.276;2022-12-17T02:06:22;-3273.40;86.70
48994;DHT22;34804;49.214;12.276;2022-12-17T02:09:41;-3273.30;86.90
48994;DHT22;34804;49.214;12.276;2022-12-17T02:12:44;-3273.30;86.80
48994;DHT22;34804;49.214;12.276;2022-12-17T02:15:54;-3273.30;86.80
48994;DHT22;34804;49.214;12.276;2022-12-17T02:18:49;-3273.40;86.90
48994;DHT22;34804;49.214;12.276;2022-12-17T02:21:36;-3273.40;86.90
48994;DHT22;34804;49.214;12.276;2022-12-17T02:24:42;-3273.30;87.00
48994;DHT22;34804;49.214;12.276;2022-12-17T02:27:33;-3273.40;87.10
48994;DHT22;34804;49.214;12.276;2022-12-17T02:30:19;-3273.40;87.40
48994;DHT22;34804;49.214;12.276;2022-12-17T02:33:04;-3273.40;87.40
48994;DHT22;34804;49.214;12.276;2022-12-17T02:35:54;-3273.40;87.30
48994;DHT22;34804;49.214;12.276;2022-12-17T02:38:41;-3273.50;87.00
48994;DHT22;34804;49.214;12.276;2022-12-17T02:41:43;-3273.40;87.10
48994;DHT22;34804;49.214;12.276;2022-12-17T02:44:29;-3273.40;87.50
48994;DHT22;34804;49.214;12.276;2022-12-17T02:47:16;-3273.40;87.30
48994;DHT22;34804;49.214;12.276;2022-12-17T02:50:03;-3273.40;87.30
48994;DHT22;34804;49.214;12.276;2022-12-17T02:52:49;-3273.40;87.10
48994;DHT22;34804;49.214;12.276;2022-12-17T02:55:36;-3273.40;87.00
48994;DHT22;34804;49.214;12.276;2022-12-17T02:58:22;-3273.50;86.80
48994;DHT22;34804;49.214;12.276;2022-12-17T03:01:08;-3273.60;86.80
48994;DHT22;34804;49.214;12.276;2022-12-17T03:03:54;-3273.60;86.70
48994;DHT22;34804;49.214;12.276;2022-12-17T03:06:39;-3273.50;86.90
48994;DHT22;34804;49.214;12.276;2022-12-17T03:09:24;-3273.60;86.80
48994;DHT22;34804;49.214;12.276;2022-12-17T03:12:10;-3273.50;86.90
48994;DHT22;34804;49.214;12.276;2022-12-17T03:14:55;-3273.50;87.30
48994;DHT22;34804;49.214;12.276;2022-12-17T03:17:41;-3273.50;87.20
48994;DHT22;34804;49.214;12.276;2022-12-17T03:20:27;-3273.50;87.10
48994;DHT22;34804;49.214;12.276;2022-12-17T03:23:12;-3273.50;86.70
48994;DHT22;34804;49.214;12.276;2022-12-17T03:26:02;-3273.60;86.20
48994;DHT22;34804;49.214;12.276;2022-12-17T03:28:48;-3273.50;86.40
48994;DHT22;34804;49.214;12.276;2022-12-17T03:31:34;-3273.60;86.20
48994;DHT22;34804;49.214;12.276;2022-12-17T03:34:19;-3273.70;86.20
48994;DHT22;34804;49.214;12.276;2022-12-17T03:37:04;-3273.50;86.20
48994;DHT22;34804;49.214;12.276;2022-12-17T03:39:50;-3273.50;86.70
48994;DHT22;34804;49.214;12.276;2022-12-17T03:42:35;-3273.50;86.90
48994;DHT22;34804;49.214;12.276;2022-12-17T03:45:20;-3273.40;87.10
48994;DHT22;34804;49.214;12.276;2022-12-17T03:48:12;-3273.50;87.10
48994;DHT22;34804;49.214;12.276;2022-12-17T03:50:58;-3273.40;87.20
48994;DHT22;34804;49.214;12.276;2022-12-17T03:53:44;-3273.40;87.40
48994;DHT22;34804;49.214;12.276;2022-12-17T03:56:30;-3273.40;87.30
48994;DHT22;34804;49.214;12.276;2022-12-17T03:59:16;-3273.60;86.80
48994;DHT22;34804;49.214;12.276;2022-12-17T04:02:01;-3273.40;87.20
48994;DHT22;34804;49.214;12.276;2022-12-17T04:04:47;-3273.40;87.60
48994;DHT22;34804;49.214;12.276;2022-12-17T04:07:33;-3273.40;87.80
48994;DHT22;34804;49.214;12.276;2022-12-17T04:10:18;-3273.50;87.80
48994;DHT22;34804;49.214;12.276;2022-12-17T04:13:03;-3273.50;87.30
48994;DHT22;34804;49.214;12.276;2022-12-17T04:15:49;-3273.50;87.20
48994;DHT22;34804;49.214;12.276;2022-12-17T04:18:34;-3273.50;87.00
48994;DHT22;34804;49.214;12.276;2022-12-17T04:21:19;-3273.50;87.00
48994;DHT22;34804;49.214;12.276;2022-12-17T04:24:05;-3273.50;86.80
48994;DHT22;34804;49.214;12.276;2022-12-17T04:26:50;-3273.50;86.50
48994;DHT22;34804;49.214;12.276;2022-12-17T04:29:36;-3273.50;86.30
48994;DHT22;34804;49.214;12.276;2022-12-17T04:32:21;-3273.50;86.20
48994;DHT22;34804;49.214;12.276;2022-12-17T04:35:24;-3273.50;86.40
48994;DHT22;34804;49.214;12.276;2022-12-17T04:38:09;-3273.50;86.60
48994;DHT22;34804;49.214;12.276;2022-12-17T04:40:54;-3273.50;86.50
48994;DHT22;34804;49.214;12.276;2022-12-17T04:43:40;-3273.60;86.60
48994;DHT22;34804;49.214;12.276;2022-12-17T04:46:29;-3273.50;86.70
48994;DHT22;34804;49.214;12.276;2022-12-17T04:49:14;-3273.50;86.90
48994;DHT22;34804;49.214;12.276;2022-12-17T04:52:00;-3273.50;87.20
48994;DHT22;34804;49.214;12.276;2022-12-17T04:54:45;-3273.50;87.30
48994;DHT22;34804;49.214;12.276;2022-12-17T04:57:30;-3273.40;87.40
48994;DHT22;34804;49.214;12.276;2022-12-17T05:00:16;-3273.50;87.50
48994;DHT22;34804;49.214;12.276;2022-12-17T05:03:12;-3273.50;87.50
48994;DHT22;34804;49.214;12.276;2022-12-17T05:06:18;-3273.40;87.70
48994;DHT22;34804;49.214;12.276;2022-12-17T05:09:03;-3273.40;88.00
48994;DHT22;34804;49.214;12.276;2022-12-17T05:11:48;-3273.40;88.20
48994;DHT22;34804;49.214;12.276;2022-12-17T05:14:34;-3273.40;87.90
48994;DHT22;34804;49.214;12.276;2022-12-17T05:17:19;-3273.40;87.90
48994;DHT22;34804;49.214;12.276;2022-12-17T05:20:05;-3273.50;87.80
48994;DHT22;34804;49.214;12.276;2022-12-17T05:22:50;-3273.50;87.60
48994;DHT22;34804;49.214;12.276;2022-12-17T05:25:36;-3273.40;87.80
48994;DHT22;34804;49.214;12.276;2022-12-17T05:28:21;-3273.40;88.10
48994;DHT22;34804;49.214;12.276;2022-12-17T05:31:08;-3273.30;88.10
48994;DHT22;34804;49.214;12.276;2022-12-17T05:33:53;-3273.30;87.90
48994;DHT22;34804;49.214;12.276;2022-12-17T05:36:39;-3273.30;88.00
48994;DHT22;34804;49.214;12.276;2022-12-17T05:39:25;-3273.30;88.10
48994;DHT22;34804;49.214;12.276;2022-12-17T05:42:10;-3273.30;88.10
48994;DHT22;34804;49.214;12.276;2022-12-17T05:44:56;-3273.30;88.50
48994;DHT22;34804;49.214;12.276;2022-12-17T05:47:41;-3273.30;88.50
48994;DHT22;34804;49.214;12.276;2022-12-17T05:50:27;-3273.30;88.30
48994;DHT22;34804;49.214;12.276;2022-12-17T05:53:12;-3273.30;88.40
48994;DHT22;34804;49.214;12.276;2022-12-17T05:55:58;-3273.30;88.20
48994;DHT22;34804;49.214;12.276;2022-12-17T05:58:43;-3273.30;88.30
48994;DHT22;34804;49.214;12.276;2022-12-17T06:01:28;-3273.30;88.30
48994;DHT22;34804;49.214;12.276;2022-12-17T06:04:13;-3273.30;88.30
48994;DHT22;34804;49.214;12.276;2022-12-17T06:06:59;-3273.20;88.50
48994;DHT22;34804;49.214;12.276;2022-12-17T06:09:44;-3273.20;88.60
48994;DHT22;34804;49.214;12.276;2022-12-17T06:12:30;-3273.20;88.40
48994;DHT22;34804;49.214;12.276;2022-12-17T06:15:15;-3273.20;88.40
48994;DHT22;34804;49.214;12.276;2022-12-17T06:18:01;-3273.20;88.50
48994;DHT22;34804;49.214;12.276;2022-12-17T06:20:47;-3273.10;88.50
48994;DHT22;34804;49.214;12.276;2022-12-17T06:23:32;-3273.20;88.40
48994;DHT22;34804;49.214;12.276;2022-12-17T06:26:18;-3273.10;88.40
48994;DHT22;34804;49.214;12.276;2022-12-17T06:29:03;-3273.00;88.50
48994;DHT22;34804;49.214;12.276;2022-12-17T06:31:49;-3273.10;88.20
48994;DHT22;34804;49.214;12.276;2022-12-17T06:34:34;-3273.10;88.00
48994;DHT22;34804;49.214;12.276;2022-12-17T06:37:20;-3273.00;87.80
48994;DHT22;34804;49.214;12.276;2022-12-17T06:40:06;-3272.90;87.50
48994;DHT22;34804;49.214;12.276;2022-12-17T06:42:53;-3272.80;87.70
48994;DHT22;34804;49.214;12.276;2022-12-17T06:45:39;-3272.50;87.30
48994;DHT22;34804;49.214;12.276;2022-12-17T06:48:24;-3272.30;87.30
48994;DHT22;34804;49.214;12.276;2022-12-17T06:51:10;-3272.00;87.10
48994;DHT22;34804;49.214;12.276;2022-12-17T06:53:55;-3271.80;87.10
48994;DHT22;34804;49.214;12.276;2022-12-17T06:56:40;-3271.50;86.90
48994;DHT22;34804;49.214;12.276;2022-12-17T06:59:26;-3271.40;87.10
48994;DHT22;34804;49.214;12.276;2022-12-17T07:02:11;-3271.60;88.80
48994;DHT22;34804;49.214;12.276;2022-12-17T07:04:57;-3271.70;88.80
48994;DHT22;34804;49.214;12.276;2022-12-17T07:07:42;-3271.50;87.40
48994;DHT22;34804;49.214;12.276;2022-12-17T07:10:28;-3271.30;87.70
48994;DHT22;34804;49.214;12.276;2022-12-17T07:13:13;-3271.20;87.40
48994;DHT22;34804;49.214;12.276;2022-12-17T07:15:59;-3270.70;85.30
48994;DHT22;34804;49.214;12.276;2022-12-17T07:18:44;-3270.50;85.60
48994;DHT22;34804;49.214;12.276;2022-12-17T07:21:29;-3270.40;85.30
48994;DHT22;34804;49.214;12.276;2022-12-17T07:24:15;-3270.40;86.90
48994;DHT22;34804;49.214;12.276;2022-12-17T07:27:00;-3270.30;86.80
48994;DHT22;34804;49.214;12.276;2022-12-17T07:29:45;-3269.90;85.80
48994;DHT22;34804;49.214;12.276;2022-12-17T07:32:31;-3270.10;88.30
48994;DHT22;34804;49.214;12.276;2022-12-17T07:35:18;-3270.10;87.20
48994;DHT22;34804;49.214;12.276;2022-12-17T07:38:04;-3270.10;87.40
48994;DHT22;34804;49.214;12.276;2022-12-17T07:40:49;-3270.20;87.60
48994;DHT22;34804;49.214;12.276;2022-12-17T07:43:35;-3270.00;85.90
48994;DHT22;34804;49.214;12.276;2022-12-17T07:46:20;-3269.80;85.10
48994;DHT22;34804;49.214;12.276;2022-12-17T07:49:06;-3269.60;85.40
48994;DHT22;34804;49.214;12.276;2022-12-17T07:51:52;-3269.60;87.00
48994;DHT22;34804;49.214;12.276;2022-12-17T07:54:37;-3269.50;87.30
48994;DHT22;34804;49.214;12.276;2022-12-17T07:57:24;-3269.50;87.50
48994;DHT22;34804;49.214;12.276;2022-12-17T08:00:10;-3269.50;86.60
48994;DHT22;34804;49.214;12.276;2022-12-17T08:02:57;-3269.50;86.10
48994;DHT22;34804;49.214;12.276;2022-12-17T08:05:43;-3269.60;87.10
48994;DHT22;34804;49.214;12.276;2022-12-17T08:08:28;-3269.70;86.90
48994;DHT22;34804;49.214;12.276;2022-12-17T08:11:14;-3269.80;87.80
48994;DHT22;34804;49.214;12.276;2022-12-17T08:13:59;-3270.00;87.40
48994;DHT22;34804;49.214;12.276;2022-12-17T08:16:45;-3270.10;87.30
48994;DHT22;34804;49.214;12.276;2022-12-17T08:19:31;-3270.20;87.60
48994;DHT22;34804;49.214;12.276;2022-12-17T08:22:16;-3270.30;86.90
48994;DHT22;34804;49.214;12.276;2022-12-17T08:25:02;-3270.50;86.70
48994;DHT22;34804;49.214;12.276;2022-12-17T08:27:47;-3270.60;87.10
48994;DHT22;34804;49.214;12.276;2022-12-17T08:30:47;-3270.60;86.20
48994;DHT22;34804;49.214;12.276;2022-12-17T08:33:33;-3270.60;85.60
48994;DHT22;34804;49.214;12.276;2022-12-17T08:36:19;-3270.70;85.70
48994;DHT22;34804;49.214;12.276;2022-12-17T08:39:05;-3270.90;86.70
48994;DHT22;34804;49.214;12.276;2022-12-17T08:41:50;-3270.90;86.30
48994;DHT22;34804;49.214;12.276;2022-12-17T08:44:36;-3271.00;85.20
48994;DHT22;34804;49.214;12.276;2022-12-17T08:47:22;-3271.00;86.00
48994;DHT22;34804;49.214;12.276;2022-12-17T08:50:08;-3271.20;86.30
48994;DHT22;34804;49.214;12.276;2022-12-17T08:52:57;-3271.20;85.80
48994;DHT22;34804;49.214;12.276;2022-12-17T08:55:43;-3271.20;86.00
48994;DHT22;34804;49.214;12.276;2022-12-17T08:58:28;-3271.40;86.90
48994;DHT22;34804;49.214;12.276;2022-12-17T09:01:14;-3271.70;86.60
48994;DHT22;34804;49.214;12.276;2022-12-17T09:03:59;-3271.70;85.30
48994;DHT22;34804;49.214;12.276;2022-12-17T09:06:45;-3271.50;83.80
48994;DHT22;34804;49.214;12.276;2022-12-17T09:09:30;-3271.40;83.20
48994;DHT22;34804;49.214;12.276;2022-12-17T09:12:16;-3271.30;84.30
48994;DHT22;34804;49.214;12.276;2022-12-17T09:15:01;-3271.20;84.90
48994;DHT22;34804;49.214;12.276;2022-12-17T09:17:46;-3271.40;85.20
48994;DHT22;34804;49.214;12.276;2022-12-17T09:20:32;-3271.50;86.00
48994;DHT22;34804;49.214;12.276;2022-12-17T09:23:18;-3271.50;85.90
48994;DHT22;34804;49.214;12.276;2022-12-17T09:26:04;-3271.90;86.20
48994;DHT22;34804;49.214;12.276;2022-12-17T09:28:49;-3272.10;85.40
48994;DHT22;34804;49.214;12.276;2022-12-17T09:31:38;-3272.20;85.40
48994;DHT22;34804;49.214;12.276;2022-12-17T09:34:23;-3272.20;85.20
48994;DHT22;34804;49.214;12.276;2022-12-17T09:37:09;-3272.20;85.20
48994;DHT22;34804;49.214;12.276;2022-12-17T09:39:54;-3272.50;85.60
48994;DHT22;34804;49.214;12.276;2022-12-17T09:42:54;-3272.40;84.40
48994;DHT22;34804;49.214;12.276;2022-12-17T09:46:02;-3272.40;84.80
48994;DHT22;34804;49.214;12.276;2022-12-17T09:49:04;-3272.50;84.60
48994;DHT22;34804;49.214;12.276;2022-12-17T09:51:53;-3272.60;84.40
48994;DHT22;34804;49.214;12.276;2022-12-17T09:54:45;-3272.90;84.30
48994;DHT22;34804;49.214;12.276;2022-12-17T09:57:34;-3273.20;84.10
48994;DHT22;34804;49.214;12.276;2022-12-17T10:00:25;-3273.40;83.40
48994;DHT22;34804;49.214;12.276;2022-12-17T10:03:19;-3273.50;82.60
48994;DHT22;34804;49.214;12.276;2022-12-17T10:06:10;-3273.30;83.20
48994;DHT22;34804;49.214;12.276;2022-12-17T10:08:58;-3273.30;82.60
48994;DHT22;34804;49.214;12.276;2022-12-17T10:11:44;-3273.20;82.80
48994;DHT22;34804;49.214;12.276;2022-12-17T10:14:30;-3273.30;82.70
48994;DHT22;34804;49.214;12.276;2022-12-17T10:17:20;-3273.30;82.40
48994;DHT22;34804;49.214;12.276;2022-12-17T10:20:30;-3273.40;82.50
48994;DHT22;34804;49.214;12.276;2022-12-17T10:23:27;-3273.60;82.10
48994;DHT22;34804;49.214;12.276;2022-12-17T10:26:16;-3273.90;81.40
48994;DHT22;34804;49.214;12.276;2022-12-17T10:29:04;-3274.20;80.90
48994;DHT22;34804;49.214;12.276;2022-12-17T10:31:50;-3274.50;79.90
48994;DHT22;34804;49.214;12.276;2022-12-17T10:34:36;-3274.80;79.40
48994;DHT22;34804;49.214;12.276;2022-12-17T10:37:31;-3275.00;78.60
48994;DHT22;34804;49.214;12.276;2022-12-17T10:40:27;-3275.10;77.40
48994;DHT22;34804;49.214;12.276;2022-12-17T10:46:14;-3275.50;76.10
48994;DHT22;34804;49.214;12.276;2022-12-17T10:49:21;-3275.60;76.00
48994;DHT22;34804;49.214;12.276;2022-12-17T10:52:25;-3275.80;75.30
48994;DHT22;34804;49.214;12.276;2022-12-17T10:55:22;-3276.10;74.30
48994;DHT22;34804;49.214;12.276;2022-12-17T10:58:15;-3276.10;73.80
48994;DHT22;34804;49.214;12.276;2022-12-17T11:01:03;-3276.20;73.20
48994;DHT22;34804;49.214;12.276;2022-12-17T11:03:54;-3276.70;72.70
48994;DHT22;34804;49.214;12.276;2022-12-17T11:06:52;0.00;71.70
48994;DHT22;34804;49.214;12.276;2022-12-17T11:09:46;0.30;70.00
48994;DHT22;34804;49.214;12.276;2022-12-17T11:12:46;0.50;69.50
48994;DHT22;34804;49.214;12.276;2022-12-17T11:15:35;0.50;69.40
48994;DHT22;34804;49.214;12.276;2022-12-17T11:18:27;0.40;69.30
48994;DHT22;34804;49.214;12.276;2022-12-17T11:21:20;0.70;69.50
48994;DHT22;34804;49.214;12.276;2022-12-17T11:24:13;1.40;67.70
48994;DHT22;34804;49.214;12.276;2022-12-17T11:27:03;1.30;66.50
48994;DHT22;34804;49.214;12.276;2022-12-17T11:29:50;1.30;67.70
48994;DHT22;34804;49.214;12.276;2022-12-17T11:38:40;2.30;63.80
48994;DHT22;34804;49.214;12.276;2022-12-17T11:41:43;3.20;62.60
48994;DHT22;34804;49.214;12.276;2022-12-17T11:47:58;4.20;57.60
48994;DHT22;34804;49.214;12.276;2022-12-17T11:51:16;3.50;57.80
48994;DHT22;34804;49.214;12.276;2022-12-17T11:54:19;3.20;59.80
48994;DHT22;34804;49.214;12.276;2022-12-17T11:57:17;3.50;58.70
48994;DHT22;34804;49.214;12.276;2022-12-17T12:00:20;3.70;57.30
48994;DHT22;34804;49.214;12.276;2022-12-17T12:09:45;4.60;56.40
48994;DHT22;34804;49.214;12.276;2022-12-17T12:21:40;6.10;51.80
48994;DHT22;34804;49.214;12.276;2022-12-17T12:28:05;6.50;49.50
48994;DHT22;34804;49.214;12.276;2022-12-17T12:31:03;6.50;48.90
48994;DHT22;34804;49.214;12.276;2022-12-17T12:34:03;6.40;49.20
48994;DHT22;34804;49.214;12.276;2022-12-17T12:36:50;7.50;48.00
48994;DHT22;34804;49.214;12.276;2022-12-17T12:39:43;7.10;46.70
48994;DHT22;34804;49.214;12.276;2022-12-17T12:51:32;6.80;48.60
48994;DHT22;34804;49.214;12.276;2022-12-17T12:54:47;7.10;48.10
48994;DHT22;34804;49.214;12.276;2022-12-17T12:57:36;6.80;48.00
48994;DHT22;34804;49.214;12.276;2022-12-17T13:03:18;7.10;45.70
48994;DHT22;34804;49.214;12.276;2022-12-17T13:06:07;5.60;48.50
48994;DHT22;34804;49.214;12.276;2022-12-17T13:08:34;5.40;49.80
48994;DHT22;34804;49.214;12.276;2022-12-17T13:11:28;5.50;49.10
48994;DHT22;34804;49.214;12.276;2022-12-17T13:14:00;6.00;48.90
48994;DHT22;34804;49.214;12.276;2022-12-17T13:16:51;4.70;50.90
48994;DHT22;34804;49.214;12.276;2022-12-17T13:24:55;4.10;54.50
48994;DHT22;34804;49.214;12.276;2022-12-17T13:32:57;4.10;55.90
48994;DHT22;34804;49.214;12.276;2022-12-17T13:39:04;3.90;55.30
48994;DHT22;34804;49.214;12.276;2022-12-17T13:41:34;4.20;56.00
48994;DHT22;34804;49.214;12.276;2022-12-17T13:44:15;4.30;55.00
48994;DHT22;34804;49.214;12.276;2022-12-17T13:46:48;4.10;55.80
48994;DHT22;34804;49.214;12.276;2022-12-17T13:49:35;4.30;54.70
48994;DHT22;34804;49.214;12.276;2022-12-17T13:52:16;3.60;54.20
48994;DHT22;34804;49.214;12.276;2022-12-17T13:54:43;2.60;56.30
48994;DHT22;34804;49.214;12.276;2022-12-17T13:57:24;3.10;58.20
48994;DHT22;34804;49.214;12.276;2022-12-17T13:59:57;3.40;55.80
48994;DHT22;34804;49.214;12.276;2022-12-17T14:02:30;3.20;55.80
48994;DHT22;34804;49.214;12.276;2022-12-17T14:05:00;3.30;55.20
48994;DHT22;34804;49.214;12.276;2022-12-17T14:07:37;2.60;56.70
48994;DHT22;34804;49.214;12.276;2022-12-17T14:10:11;1.90;58.40
48994;DHT22;34804;49.214;12.276;2022-12-17T14:12:39;1.50;61.40
48994;DHT22;34804;49.214;12.276;2022-12-17T14:15:25;1.20;61.90
48994;DHT22;34804;49.214;12.276;2022-12-17T14:17:54;1.20;60.70
48994;DHT22;34804;49.214;12.276;2022-12-17T14:20:24;1.60;60.00
48994;DHT22;34804;49.214;12.276;2022-12-17T14:22:54;1.00;60.20
48994;DHT22;34804;49.214;12.276;2022-12-17T14:25:25;0.30;64.60
48994;DHT22;34804;49.214;12.276;2022-12-17T14:27:55;0.20;65.20
48994;DHT22;34804;49.214;12.276;2022-12-17T14:30:35;0.00;65.00
48994;DHT22;34804;49.214;12.276;2022-12-17T14:33:29;-3276.70;66.50
48994;DHT22;34804;49.214;12.276;2022-12-17T14:35:58;-3276.60;67.00
48994;DHT22;34804;49.214;12.276;2022-12-17T14:38:26;-3276.30;67.00
48994;DHT22;34804;49.214;12.276;2022-12-17T14:41:11;-3276.30;70.00
48994;DHT22;34804;49.214;12.276;2022-12-17T14:43:58;-3276.20;69.20
48994;DHT22;34804;49.214;12.276;2022-12-17T14:46:27;-3276.10;67.50
48994;DHT22;34804;49.214;12.276;2022-12-17T14:48:59;-3275.20;64.30
48994;DHT22;34804;49.214;12.276;2022-12-17T14:51:35;-3273.90;66.80
48994;DHT22;34804;49.214;12.276;2022-12-17T14:56:46;-3273.90;74.50
48994;DHT22;34804;49.214;12.276;2022-12-17T15:01:51;-3273.80;75.80
48994;DHT22;34804;49.214;12.276;2022-12-17T15:04:22;-3273.70;75.00
48994;DHT22;34804;49.214;12.276;2022-12-17T15:06:49;-3273.20;72.80
48994;DHT22;34804;49.214;12.276;2022-12-17T15:09:19;-3273.00;73.00
48994;DHT22;34804;49.214;12.276;2022-12-17T15:11:46;-3272.40;73.40
48994;DHT22;34804;49.214;12.276;2022-12-17T15:14:13;-3272.10;74.10
48994;DHT22;34804;49.214;12.276;2022-12-17T15:16:39;-3271.60;73.70
48994;DHT22;34804;49.214;12.276;2022-12-17T15:19:06;-3271.20;74.20
48994;DHT22;34804;49.214;12.276;2022-12-17T15:21:33;-3271.00;74.40
48994;DHT22;34804;49.214;12.276;2022-12-17T15:24:00;-3270.90;76.20
48994;DHT22;34804;49.214;12.276;2022-12-17T15:26:27;-3271.00;77.50
48994;DHT22;34804;49.214;12.276;2022-12-17T15:28:54;-3271.20;78.40
48994;DHT22;34804;49.214;12.276;2022-12-17T15:31:21;-3271.00;78.20
48994;DHT22;34804;49.214;12.276;2022-12-17T15:33:53;-3270.80;79.80
48994;DHT22;34804;49.214;12.276;2022-12-17T15:36:19;-3270.80;81.20
48994;DHT22;34804;49.214;12.276;2022-12-17T15:38:46;-3270.70;80.80
48994;DHT22;34804;49.214;12.276;2022-12-17T15:41:13;-3270.50;80.10
48994;DHT22;34804;49.214;12.276;2022-12-17T15:43:59;-3270.50;80.80
48994;DHT22;34804;49.214;12.276;2022-12-17T15:46:25;-3270.00;77.40
48994;DHT22;34804;49.214;12.276;2022-12-17T15:48:52;-3269.80;78.90
48994;DHT22;34804;49.214;12.276;2022-12-17T15:51:19;-3269.80;80.90
48994;DHT22;34804;49.214;12.276;2022-12-17T15:53:47;-3270.00;82.60
48994;DHT22;34804;49.214;12.276;2022-12-17T15:56:22;-3270.00;83.40
48994;DHT22;34804;49.214;12.276;2022-12-17T15:58:50;-3269.90;83.90
48994;DHT22;34804;49.214;12.276;2022-12-17T16:01:17;-3269.80;83.60
48994;DHT22;34804;49.214;12.276;2022-12-17T16:03:45;-3269.80;83.50
48994;DHT22;34804;49.214;12.276;2022-12-17T16:06:12;-3269.70;83.80
48994;DHT22;34804;49.214;12.276;2022-12-17T16:08:39;-3269.60;83.30
48994;DHT22;34804;49.214;12.276;2022-12-17T16:11:07;-3269.30;82.20
48994;DHT22;34804;49.214;12.276;2022-12-17T16:13:35;-3269.00;81.70
48994;DHT22;34804;49.214;12.276;2022-12-17T16:16:03;-3268.90;82.70
48994;DHT22;34804;49.214;12.276;2022-12-17T16:18:30;-3268.90;83.80
48994;DHT22;34804;49.214;12.276;2022-12-17T16:21:01;-3268.80;83.40
48994;DHT22;34804;49.214;12.276;2022-12-17T16:23:29;-3268.70;84.10
48994;DHT22;34804;49.214;12.276;2022-12-17T16:26:00;-3268.80;84.30
48994;DHT22;34804;49.214;12.276;2022-12-17T16:28:28;-3268.90;84.50
48994;DHT22;34804;49.214;12.276;2022-12-17T16:31:13;-3269.00;84.90
48994;DHT22;34804;49.214;12.276;2022-12-17T16:33:42;-3269.20;85.30
48994;DHT22;34804;49.214;12.276;2022-12-17T16:36:12;-3269.10;84.20
48994;DHT22;34804;49.214;12.276;2022-12-17T16:38:57;-3269.00;83.30
48994;DHT22;34804;49.214;12.276;2022-12-17T16:41:24;-3268.30;81.60
48994;DHT22;34804;49.214;12.276;2022-12-17T16:43:51;-3267.90;80.90
48994;DHT22;34804;49.214;12.276;2022-12-17T16:46:28;-3267.70;82.30
48994;DHT22;34804;49.214;12.276;2022-12-17T16:48:58;-3267.80;83.00
48994;DHT22;34804;49.214;12.276;2022-12-17T16:51:26;-3267.80;83.60
48994;DHT22;34804;49.214;12.276;2022-12-17T16:53:56;-3267.80;83.70
48994;DHT22;34804;49.214;12.276;2022-12-17T16:56:27;-3267.80;84.50
48994;DHT22;34804;49.214;12.276;2022-12-17T16:58:55;-3267.90;85.10
48994;DHT22;34804;49.214;12.276;2022-12-17T17:01:24;-3268.00;85.10
48994;DHT22;34804;49.214;12.276;2022-12-17T17:03:53;-3268.10;84.90
48994;DHT22;34804;49.214;12.276;2022-12-17T17:06:20;-3267.90;81.70
48994;DHT22;34804;49.214;12.276;2022-12-17T17:08:47;-3267.70;80.40
48994;DHT22;34804;49.214;12.276;2022-12-17T17:13:44;-3267.60;82.50
48994;DHT22;34804;49.214;12.276;2022-12-17T17:16:11;-3267.90;85.00
48994;DHT22;34804;49.214;12.276;2022-12-17T17:18:38;-3267.70;86.50
48994;DHT22;34804;49.214;12.276;2022-12-17T17:23:46;-3267.70;87.70
48994;DHT22;34804;49.214;12.276;2022-12-17T17:26:14;-3267.60;87.20
48994;DHT22;34804;49.214;12.276;2022-12-17T17:28:41;-3267.50;86.50
48994;DHT22;34804;49.214;12.276;2022-12-17T17:31:12;-3267.50;86.30